Time;durP1;ratioP1;P1;durP2;ratioP2;P2;SDS_P1;SDS_P2;PMS_P1;PMS_P2;Temp;Humidity;BMP_temperature;BMP_pressure;BME280_temperature;BME280_humidity;BME280_pressure;Samples;Min_cycle;Max_cycle;Signal;HPM_P1;HPM_P2
2022/03/24 00:00:17;;;;;;;52.08;24.20;;;;;;;4.02;73.84;102837.84;4932676;29;20019;-83
2022/03/24 00:02:43;;;;;;;52.67;25.40;;;;;;;4.00;74.00;102847.81;4928206;29;20043;-83
2022/03/24 00:05:08;;;;;;;56.77;25.40;;;;;;;3.95;73.66;102836.84;4917658;29;20095;-83
2022/03/24 00:07:34;;;;;;;55.13;25.83;;;;;;;3.90;73.71;102839.16;4930356;29;20039;-83
2022/03/24 00:10:00;;;;;;;52.70;24.13;;;;;;;3.83;73.04;102841.63;4932678;29;20032;-83
2022/03/24 00:12:26;;;;;;;52.77;24.70;;;;;;;3.80;74.02;102844.59;4931551;29;20035;-83
2022/03/24 00:14:51;;;;;;;52.97;24.60;;;;;;;3.77;74.09;102843.13;4932631;29;20287;-82
2022/03/24 00:17:17;;;;;;;58.53;25.38;;;;;;;3.75;73.90;102831.84;4931692;29;20027;-83
2022/03/24 00:19:42;;;;;;;52.50;25.07;;;;;;;3.70;73.67;102828.03;4932896;29;20032;-83
2022/03/24 00:22:07;;;;;;;54.83;24.73;;;;;;;3.67;74.05;102839.75;4932173;29;20420;-83
2022/03/24 00:24:33;;;;;;;54.00;24.27;;;;;;;3.60;74.13;102830.81;4931181;29;20032;-83
2022/03/24 00:26:58;;;;;;;50.67;24.40;;;;;;;3.57;74.40;102828.47;4931844;29;20114;-83
2022/03/24 00:29:23;;;;;;;55.13;24.80;;;;;;;3.54;74.18;102828.78;4935882;29;20623;-83
2022/03/24 00:31:49;;;;;;;50.47;24.03;;;;;;;3.51;74.13;102827.31;4934977;29;20035;-83
2022/03/24 00:34:15;;;;;;;50.83;24.15;;;;;;;3.45;74.09;102820.84;4936216;29;20028;-83
2022/03/24 00:36:40;;;;;;;49.75;23.95;;;;;;;3.43;73.95;102828.13;4935635;29;20086;-82
2022/03/24 00:39:06;;;;;;;46.67;23.23;;;;;;;3.37;74.27;102826.09;4937997;29;20050;-82
2022/03/24 00:41:32;;;;;;;58.70;24.65;;;;;;;3.34;74.57;102829.06;4936048;29;20035;-83
2022/03/24 00:43:57;;;;;;;56.97;23.73;;;;;;;3.34;74.56;102818.47;4934590;29;20030;-83
2022/03/24 00:46:22;;;;;;;53.40;24.07;;;;;;;3.30;74.76;102817.13;4935600;29;20039;-83
2022/03/24 00:48:53;;;;;;;52.97;23.05;;;;;;;3.30;74.80;102822.41;4935858;29;20019;-83
2022/03/24 00:51:19;;;;;;;49.88;24.08;;;;;;;3.22;74.91;102814.44;4934921;29;20419;-83
2022/03/24 00:53:45;;;;;;;48.23;22.87;;;;;;;3.16;74.91;102814.09;4935946;29;20043;-83
2022/03/24 00:56:10;;;;;;;48.95;22.58;;;;;;;3.12;75.08;102811.91;4935277;29;20034;-83
2022/03/24 00:58:37;;;;;;;51.85;23.40;;;;;;;3.09;75.73;102807.78;4935349;29;20036;-83
2022/03/24 01:01:03;;;;;;;50.03;22.30;;;;;;;3.07;75.97;102807.09;4934184;29;20075;-82
2022/03/24 01:03:28;;;;;;;48.97;22.60;;;;;;;3.06;75.84;102810.75;4934463;29;20299;-82
2022/03/24 01:05:54;;;;;;;50.10;22.55;;;;;;;3.02;75.56;102810.22;4935162;29;20035;-84
2022/03/24 01:08:20;;;;;;;51.13;22.10;;;;;;;2.96;75.59;102813.50;4934175;29;20031;-83
2022/03/24 01:10:46;;;;;;;50.88;22.02;;;;;;;2.91;75.12;102807.84;4934555;29;20442;-83
2022/03/24 01:13:11;;;;;;;47.93;21.73;;;;;;;2.90;76.28;102802.72;4935117;29;20198;-81
2022/03/24 01:15:36;;;;;;;54.63;22.98;;;;;;;2.86;76.01;102810.13;4935827;29;20038;-83
2022/03/24 01:18:02;;;;;;;44.93;21.13;;;;;;;2.82;76.29;102811.44;4933457;29;20488;-83
2022/03/24 01:20:29;;;;;;;52.03;23.47;;;;;;;2.83;76.35;102808.63;4934827;29;20476;-83
2022/03/24 01:22:55;;;;;;;51.05;22.23;;;;;;;2.81;75.94;102804.50;4935173;29;20428;-83
2022/03/24 01:25:23;;;;;;;53.00;24.88;;;;;;;2.75;76.52;102805.09;4934605;29;20031;-83
2022/03/24 01:27:49;;;;;;;47.28;21.67;;;;;;;2.71;76.59;102807.25;4934164;29;20030;-83
2022/03/24 01:30:15;;;;;;;49.13;22.70;;;;;;;2.67;77.36;102795.31;4934766;29;20028;-83
2022/03/24 01:32:41;;;;;;;52.60;23.50;;;;;;;2.65;77.30;102794.63;4934022;29;20111;-81
2022/03/24 01:35:07;;;;;;;52.55;23.00;;;;;;;2.58;76.40;102797.88;4933634;29;20042;-83
2022/03/24 01:37:36;;;;;;;51.57;22.13;;;;;;;2.54;77.31;102793.06;4933106;29;20038;-83
2022/03/24 01:40:03;;;;;;;53.37;22.63;;;;;;;2.52;77.19;102792.38;4934257;29;20330;-83
2022/03/24 01:42:34;;;;;;;59.17;24.83;;;;;;;2.50;77.49;102783.78;4934621;29;20028;-83
2022/03/24 01:44:59;;;;;;;54.97;23.40;;;;;;;2.52;77.82;102780.00;4934821;29;20019;-83
2022/03/24 01:47:25;;;;;;;54.72;24.45;;;;;;;2.47;77.67;102778.78;4934233;29;20367;-83
2022/03/24 01:49:50;;;;;;;54.20;23.93;;;;;;;2.44;78.25;102784.41;4934520;29;20024;-83
2022/03/24 01:52:18;;;;;;;55.77;24.20;;;;;;;2.39;78.74;102783.06;4932888;29;20599;-83
2022/03/24 01:54:46;;;;;;;51.88;23.80;;;;;;;2.39;78.26;102784.84;4937355;29;20035;-84
2022/03/24 01:57:12;;;;;;;51.45;22.95;;;;;;;2.41;78.24;102777.59;4933414;29;20036;-82
2022/03/24 01:59:38;;;;;;;54.50;24.35;;;;;;;2.40;78.35;102774.13;4935024;29;20031;-82
2022/03/24 02:02:05;;;;;;;55.75;23.40;;;;;;;2.37;78.10;102778.91;4934554;29;20497;-83
2022/03/24 02:04:32;;;;;;;58.22;25.33;;;;;;;2.31;77.96;102767.09;4934096;29;20110;-83
2022/03/24 02:06:58;;;;;;;54.25;23.67;;;;;;;2.32;78.31;102775.91;4921915;29;20037;-83
2022/03/24 02:09:23;;;;;;;50.53;23.37;;;;;;;2.29;78.11;102763.78;4911072;29;20028;-83
2022/03/24 02:11:48;;;;;;;61.47;24.83;;;;;;;2.26;78.27;102770.22;4912258;29;20528;-83
2022/03/24 02:14:14;;;;;;;52.20;23.57;;;;;;;2.25;78.13;102767.75;4915358;29;20429;-83
2022/03/24 02:16:41;;;;;;;53.85;25.58;;;;;;;2.27;78.02;102769.25;4914799;29;20070;-83
2022/03/24 02:19:22;;;;;;;58.67;24.90;;;;;;;2.24;77.83;102769.53;4924339;29;20046;-83
2022/03/24 02:21:50;;;;;;;54.05;24.45;;;;;;;2.18;78.48;102767.53;4934095;29;20107;-85
2022/03/24 02:24:17;;;;;;;56.33;25.47;;;;;;;2.22;78.95;102771.50;4932615;29;20087;-85
2022/03/24 02:26:45;;;;;;;56.97;26.17;;;;;;;2.20;79.43;102768.19;4916052;29;20374;-85
2022/03/24 02:29:12;;;;;;;55.25;24.65;;;;;;;2.18;79.42;102767.53;4912955;29;20032;-85
2022/03/24 02:31:40;;;;;;;52.90;24.05;;;;;;;2.17;78.93;102770.31;4915038;29;20024;-83
2022/03/24 02:36:52;;;;;;;53.95;24.52;;;;;;;2.03;79.01;102767.25;4914686;29;20047;-84
2022/03/24 02:39:17;;;;;;;57.47;25.70;;;;;;;2.02;80.39;102777.97;4915225;29;20032;-81
2022/03/24 02:41:51;;;;;;;60.13;26.73;;;;;;;1.97;80.41;102775.78;4914416;29;20029;-83
2022/03/24 02:44:17;;;;;;;60.00;27.48;;;;;;;1.95;80.49;102769.81;4928091;29;20466;-82
2022/03/24 02:46:47;;;;;;;58.33;26.23;;;;;;;1.94;80.53;102774.28;4912425;29;20023;-84
2022/03/24 02:49:15;;;;;;;58.80;26.63;;;;;;;1.94;80.17;102763.69;4903735;29;20323;-83
2022/03/24 02:51:41;;;;;;;65.70;27.30;;;;;;;1.89;80.16;102776.53;4933674;29;20035;-82
2022/03/24 02:54:08;;;;;;;58.03;26.98;;;;;;;1.85;80.58;102769.88;4927930;29;20116;-82
2022/03/24 02:56:34;;;;;;;62.03;26.73;;;;;;;1.87;80.98;102767.94;4911311;29;20020;-82
2022/03/24 02:58:59;;;;;;;59.50;26.07;;;;;;;1.85;80.45;102763.78;4914697;29;20343;-81
2022/03/24 03:01:25;;;;;;;60.27;26.00;;;;;;;1.81;80.80;102769.38;4913589;29;20043;-82
2022/03/24 03:03:52;;;;;;;61.37;28.03;;;;;;;1.77;81.28;102765.34;4921620;29;20436;-83
2022/03/24 03:06:18;;;;;;;64.18;25.98;;;;;;;1.75;81.17;102764.69;4915379;29;20035;-82
2022/03/24 03:08:44;;;;;;;61.47;26.05;;;;;;;1.74;80.78;102767.47;4915717;29;20084;-81
2022/03/24 03:11:09;;;;;;;61.35;27.20;;;;;;;1.70;80.53;102763.47;4925295;29;20631;-82
2022/03/24 03:13:35;;;;;;;59.03;26.07;;;;;;;1.67;80.88;102767.25;4914469;29;20115;-82
2022/03/24 03:16:00;;;;;;;60.40;26.53;;;;;;;1.64;80.73;102763.09;4922638;29;20032;-83
2022/03/24 03:18:25;;;;;;;59.60;25.60;;;;;;;1.62;80.88;102758.94;4924001;29;20036;-83
2022/03/24 03:20:51;;;;;;;59.33;25.40;;;;;;;1.57;81.75;102763.84;4914307;29;20392;-84
2022/03/24 03:23:16;;;;;;;61.97;27.57;;;;;;;1.54;82.09;102767.63;4912670;29;20091;-83
2022/03/24 03:25:41;;;;;;;65.70;26.80;;;;;;;1.53;81.77;102771.25;4911979;29;20095;-82
2022/03/24 03:28:07;;;;;;;65.70;27.60;;;;;;;1.51;82.49;102762.63;4912797;29;20020;-82
2022/03/24 03:30:32;;;;;;;56.97;26.33;;;;;;;1.49;82.17;102765.44;4914894;29;20306;-82
2022/03/24 03:32:57;;;;;;;60.67;26.70;;;;;;;1.42;81.90;102755.63;4929398;29;20154;-83
2022/03/24 03:35:23;;;;;;;64.83;28.43;;;;;;;1.47;82.08;102762.09;4932324;29;20028;-83
2022/03/24 04:03:43;;;;;;;63.60;26.67;;;;;;;1.18;82.87;102768.41;5245898;23;20307;-93
2022/03/24 04:06:37;;;;;;;62.35;26.58;;;;;;;1.24;82.79;102776.69;4918009;29;20028;-93
2022/03/24 04:13:19;;;;;;;63.55;26.60;;;;;;;1.17;82.13;102768.53;4877063;29;20049;-87
2022/03/24 04:15:48;;;;;;;63.25;26.80;;;;;;;0.95;83.45;102746.81;4890818;29;20048;-89
2022/03/24 04:28:44;;;;;;;57.95;25.73;;;;;;;0.93;83.53;102769.88;4935009;29;20055;-86
2022/03/24 04:34:34;;;;;;;56.60;23.80;;;;;;;0.71;83.87;102750.81;4934302;29;20375;-85
2022/03/24 04:37:38;;;;;;;54.45;25.73;;;;;;;0.78;83.03;102755.50;4935597;29;20106;-85
2022/03/24 04:40:25;;;;;;;63.83;25.75;;;;;;;0.85;83.62;102770.63;4856485;29;20044;-86
2022/03/24 04:43:01;;;;;;;58.85;25.35;;;;;;;0.72;83.84;102757.78;4858161;29;20105;-81
2022/03/24 04:45:33;;;;;;;55.70;24.33;;;;;;;0.63;84.62;102749.88;4850876;29;20073;-84
2022/03/24 04:48:54;;;;;;;57.30;25.55;;;;;;;0.57;84.43;102759.19;4875220;29;20433;-85
2022/03/24 04:51:14;;;;;;;60.00;25.88;;;;;;;0.64;84.46;102778.75;4893307;29;20082;-84
2022/03/24 04:53:39;;;;;;;58.78;25.20;;;;;;;0.62;84.89;102777.25;4917670;29;20031;-84
2022/03/24 04:56:05;;;;;;;55.07;24.97;;;;;;;0.56;84.68;102774.19;4935203;29;20027;-86
2022/03/24 04:58:30;;;;;;;59.60;25.87;;;;;;;0.49;85.06;102773.09;4934499;29;20078;-86
2022/03/24 05:00:55;;;;;;;58.23;25.10;;;;;;;0.44;85.29;102781.44;4935169;29;20028;-86
2022/03/24 05:03:21;;;;;;;58.92;25.55;;;;;;;0.38;85.39;102771.44;4935374;29;20024;-86
2022/03/24 05:05:47;;;;;;;59.93;26.13;;;;;;;0.38;86.16;102782.00;4935625;29;20499;-86
2022/03/24 05:08:13;;;;;;;61.40;26.38;;;;;;;0.33;85.75;102773.69;4933821;29;20340;-86
2022/03/24 05:10:41;;;;;;;60.63;24.97;;;;;;;0.39;85.75;102778.38;4934663;29;20031;-86
2022/03/24 05:13:06;;;;;;;60.38;25.70;;;;;;;0.35;86.11;102771.75;4934978;29;20036;-86
2022/03/24 05:15:32;;;;;;;58.27;25.40;;;;;;;0.34;85.86;102779.78;4935037;29;20425;-86
2022/03/24 05:17:58;;;;;;;61.90;26.30;;;;;;;0.32;86.01;102777.31;4935156;29;20038;-86
2022/03/24 05:20:27;;;;;;;60.20;26.27;;;;;;;0.26;86.25;102777.84;4941690;23;20048;-86
2022/03/24 05:23:21;;;;;;;56.35;25.23;;;;;;;0.21;86.72;102769.53;4935110;29;20134;-86
2022/03/24 05:29:27;;;;;;;55.53;23.03;;;;;;;0.25;86.88;102790.22;4934987;29;20062;-86
2022/03/24 05:32:29;;;;;;;56.73;24.70;;;;;;;0.12;86.96;102774.69;5029749;23;20326;-86
2022/03/24 05:35:06;;;;;;;61.60;26.02;;;;;;;0.04;87.35;102773.72;4933555;29;20673;-86
2022/03/24 05:37:57;;;;;;;54.38;24.23;;;;;;;0.17;87.59;102787.44;4936306;29;20027;-86
2022/03/24 05:40:32;;;;;;;58.85;25.48;;;;;;;0.13;87.21;102781.63;5020935;23;20050;-86
2022/03/24 05:42:58;;;;;;;60.60;25.70;;;;;;;0.12;87.79;102784.38;4933546;29;20055;-86
2022/03/24 05:45:36;;;;;;;59.93;25.67;;;;;;;0.04;87.92;102763.19;4937542;29;20024;-88
2022/03/24 05:48:29;;;;;;;59.35;24.92;;;;;;;0.22;87.60;102797.56;4934562;29;20415;-88
2022/03/24 05:51:23;;;;;;;63.17;24.75;;;;;;;0.27;87.73;102795.34;4935092;29;20036;-86
2022/03/24 08:02:20;;;;;;;53.45;23.83;;;;;;;4.90;73.45;102851.41;6029087;23;20025;-86
2022/03/24 09:00:56;;;;;;;41.25;20.35;;;;;;;8.89;52.02;102850.53;5671365;23;20035;-87
2022/03/24 09:04:01;;;;;;;;;;;;;;;;;;;;;
2022/03/24 19:49:31;;;;;;;45.40;19.40;;;;;;;10.39;59.80;102751.59;5281154;23;20534;-84
2022/03/24 19:59:34;;;;;;;44.83;19.02;;;;;;;10.08;61.21;102766.44;5084071;23;20126;-84
2022/03/24 21:00:45;;;;;;;48.23;20.50;;;;;;;8.42;69.20;102799.41;5319593;23;20345;-85
2022/03/24 21:24:29;;;;;;;61.97;23.63;;;;;;;7.85;71.36;102795.88;5044199;23;20105;-85
2022/03/24 21:27:10;;;;;;;53.13;22.23;;;;;;;7.68;72.49;102785.44;4933541;29;20434;-85
2022/03/24 21:29:56;;;;;;;49.00;22.07;;;;;;;7.67;72.89;102793.63;4956714;28;20295;-84
2022/03/24 21:38:29;;;;;;;52.33;21.40;;;;;;;7.53;74.24;102793.50;5032085;23;20057;-83
2022/03/24 21:40:54;;;;;;;50.03;21.43;;;;;;;7.54;74.59;102807.66;4896824;29;20040;-84
2022/03/24 21:43:21;;;;;;;54.57;23.27;;;;;;;7.49;75.24;102810.06;4895824;29;20397;-84
2022/03/24 21:45:46;;;;;;;51.92;23.30;;;;;;;7.43;75.00;102804.47;4896513;29;20492;-85
2022/03/24 21:48:13;;;;;;;61.37;23.97;;;;;;;7.41;76.22;102809.16;4913925;29;20060;-85
2022/03/24 21:50:40;;;;;;;54.30;23.30;;;;;;;7.37;76.12;102815.06;4898315;29;20393;-85
2022/03/24 21:53:05;;;;;;;59.40;24.42;;;;;;;7.34;76.22;102815.44;4915407;29;20040;-85
2022/03/24 21:55:31;;;;;;;67.13;25.23;;;;;;;7.31;76.44;102813.16;4913327;29;20118;-85
2022/03/24 21:57:59;;;;;;;59.40;24.73;;;;;;;7.28;76.65;102819.69;4912952;29;20039;-84
2022/03/24 22:00:24;;;;;;;56.08;25.17;;;;;;;7.22;76.76;102817.75;4914900;29;20496;-84
2022/03/24 22:02:51;;;;;;;59.17;24.77;;;;;;;7.16;77.11;102813.16;4914906;29;20047;-84
2022/03/24 22:05:17;;;;;;;61.25;25.67;;;;;;;7.09;77.95;102810.41;4914103;29;20479;-84
2022/03/24 22:07:43;;;;;;;64.07;24.98;;;;;;;7.06;78.60;102805.44;4915470;29;20028;-85
2022/03/24 22:10:08;;;;;;;51.90;23.93;;;;;;;7.04;77.34;102815.47;4915052;29;20400;-85
2022/03/24 22:12:34;;;;;;;56.95;25.38;;;;;;;7.01;77.84;102806.00;4914800;29;20110;-85
2022/03/24 22:14:59;;;;;;;60.40;25.57;;;;;;;6.97;77.61;102818.03;4913953;29;20032;-86
2022/03/24 22:17:24;;;;;;;56.17;26.10;;;;;;;6.91;77.27;102805.47;5268590;23;20054;-84
2022/03/24 22:19:50;;;;;;;58.60;25.83;;;;;;;6.89;77.56;102823.47;4953010;28;20546;-84
2022/03/24 22:22:15;;;;;;;63.67;26.58;;;;;;;6.84;78.70;102818.72;5082455;23;20563;-84
2022/03/24 22:24:46;;;;;;;57.05;25.67;;;;;;;6.77;78.49;102817.78;4913761;29;20150;-84
2022/03/24 22:37:44;;;;;;;59.83;24.67;;;;;;;6.50;78.31;102812.88;4962107;23;20111;-84
2022/03/24 22:40:43;;;;;;;63.28;27.27;;;;;;;6.49;77.34;102835.19;4914831;29;20032;-84
2022/03/24 22:52:57;;;;;;;57.90;24.42;;;;;;;6.35;77.48;102826.16;4910999;29;20078;-84
2022/03/24 23:02:56;;;;;;;63.83;25.50;;;;;;;6.22;79.24;102823.28;4868982;29;20043;-85
2022/03/24 23:05:22;;;;;;;63.20;25.27;;;;;;;6.01;79.89;102800.03;4905201;29;20815;-85
2022/03/24 23:11:45;;;;;;;61.53;25.57;;;;;;;6.06;79.29;102822.44;4911590;29;20583;-85
2022/03/24 23:27:18;;;;;;;64.28;25.90;;;;;;;5.66;80.09;102792.41;4932606;23;20534;-85
2022/03/24 23:33:03;;;;;;;62.97;24.98;;;;;;;5.55;81.68;102777.69;4933045;29;20051;-86
2022/03/24 23:35:39;;;;;;;;;;;;;;;;;;;;;
2022/03/24 23:38:29;;;;;;;67.22;26.80;;;;;;;5.55;82.54;102801.63;4882815;29;20040;-85
2022/03/24 23:40:54;;;;;;;64.88;26.65;;;;;;;5.37;81.92;102779.78;4926652;29;20052;-85
2022/03/24 23:44:16;;;;;;;;;;;;;;;;;;;;;
2022/03/24 23:47:09;;;;;;;64.38;26.08;;;;;;;5.46;82.53;102814.13;4889475;29;20064;-85
2022/03/24 23:49:35;;;;;;;66.80;27.08;;;;;;;5.26;83.58;102786.31;4892500;29;20040;-85
2022/03/24 23:52:54;;;;;;;65.30;27.67;;;;;;;5.17;82.48;102774.88;4892372;29;20048;-85
